sensor_id;sensor_type;location;lat;lon;timestamp;P1;durP1;ratioP1;P2;durP2;ratioP2
46875;SDS011;32866;50.160;14.768;2023-04-16T00:01:23;18.17;;;12.00;;
46875;SDS011;32866;50.160;14.768;2023-04-16T00:03:49;17.70;;;11.85;;
46875;SDS011;32866;50.160;14.768;2023-04-16T00:06:14;15.77;;;11.82;;
46875;SDS011;32866;50.160;14.768;2023-04-16T00:08:40;16.10;;;11.50;;
46875;SDS011;32866;50.160;14.768;2023-04-16T00:11:07;16.33;;;11.53;;
46875;SDS011;32866;50.160;14.768;2023-04-16T00:13:32;16.42;;;12.77;;
46875;SDS011;32866;50.160;14.768;2023-04-16T00:15:58;20.48;;;12.63;;
46875;SDS011;32866;50.160;14.768;2023-04-16T00:18:23;17.95;;;12.65;;
46875;SDS011;32866;50.160;14.768;2023-04-16T00:20:49;19.40;;;12.75;;
46875;SDS011;32866;50.160;14.768;2023-04-16T00:23:14;17.58;;;12.98;;
46875;SDS011;32866;50.160;14.768;2023-04-16T00:25:41;16.70;;;12.73;;
46875;SDS011;32866;50.160;14.768;2023-04-16T00:28:06;16.05;;;11.98;;
46875;SDS011;32866;50.160;14.768;2023-04-16T00:30:32;14.38;;;9.98;;
46875;SDS011;32866;50.160;14.768;2023-04-16T00:32:58;13.82;;;11.30;;
46875;SDS011;32866;50.160;14.768;2023-04-16T00:35:23;18.40;;;11.45;;
46875;SDS011;32866;50.160;14.768;2023-04-16T00:37:49;15.80;;;10.73;;
46875;SDS011;32866;50.160;14.768;2023-04-16T00:40:14;17.08;;;12.07;;
46875;SDS011;32866;50.160;14.768;2023-04-16T00:42:40;15.88;;;11.55;;
46875;SDS011;32866;50.160;14.768;2023-04-16T00:45:05;16.35;;;11.40;;
46875;SDS011;32866;50.160;14.768;2023-04-16T00:47:31;14.15;;;10.73;;
46875;SDS011;32866;50.160;14.768;2023-04-16T00:49:57;17.60;;;12.88;;
46875;SDS011;32866;50.160;14.768;2023-04-16T00:52:23;14.90;;;11.23;;
46875;SDS011;32866;50.160;14.768;2023-04-16T00:54:50;15.83;;;11.10;;
46875;SDS011;32866;50.160;14.768;2023-04-16T00:57:25;15.68;;;11.07;;
46875;SDS011;32866;50.160;14.768;2023-04-16T00:59:51;17.27;;;12.37;;
46875;SDS011;32866;50.160;14.768;2023-04-16T01:02:18;17.47;;;11.53;;
46875;SDS011;32866;50.160;14.768;2023-04-16T01:04:43;16.08;;;11.68;;
46875;SDS011;32866;50.160;14.768;2023-04-16T01:07:09;17.67;;;12.57;;
46875;SDS011;32866;50.160;14.768;2023-04-16T01:09:34;20.20;;;11.68;;
46875;SDS011;32866;50.160;14.768;2023-04-16T01:11:59;17.80;;;13.07;;
46875;SDS011;32866;50.160;14.768;2023-04-16T01:16:51;13.93;;;11.27;;
46875;SDS011;32866;50.160;14.768;2023-04-16T01:19:16;18.65;;;12.63;;
46875;SDS011;32866;50.160;14.768;2023-04-16T01:21:41;16.85;;;11.68;;
46875;SDS011;32866;50.160;14.768;2023-04-16T01:24:07;18.13;;;11.90;;
46875;SDS011;32866;50.160;14.768;2023-04-16T01:26:32;18.50;;;13.35;;
46875;SDS011;32866;50.160;14.768;2023-04-16T01:28:58;20.33;;;13.27;;
46875;SDS011;32866;50.160;14.768;2023-04-16T01:31:24;22.80;;;14.20;;
46875;SDS011;32866;50.160;14.768;2023-04-16T01:33:49;18.35;;;12.57;;
46875;SDS011;32866;50.160;14.768;2023-04-16T01:36:15;21.10;;;13.25;;
46875;SDS011;32866;50.160;14.768;2023-04-16T01:38:40;18.02;;;12.80;;
46875;SDS011;32866;50.160;14.768;2023-04-16T01:41:06;19.13;;;14.05;;
46875;SDS011;32866;50.160;14.768;2023-04-16T01:43:31;18.10;;;13.35;;
46875;SDS011;32866;50.160;14.768;2023-04-16T01:46:10;20.60;;;13.27;;
46875;SDS011;32866;50.160;14.768;2023-04-16T01:48:38;16.47;;;11.93;;
46875;SDS011;32866;50.160;14.768;2023-04-16T01:51:04;17.42;;;13.55;;
46875;SDS011;32866;50.160;14.768;2023-04-16T01:53:30;17.33;;;13.07;;
46875;SDS011;32866;50.160;14.768;2023-04-16T01:55:55;20.05;;;14.05;;
46875;SDS011;32866;50.160;14.768;2023-04-16T01:58:20;19.70;;;12.38;;
46875;SDS011;32866;50.160;14.768;2023-04-16T02:00:46;20.60;;;14.25;;
46875;SDS011;32866;50.160;14.768;2023-04-16T02:03:11;17.58;;;13.25;;
46875;SDS011;32866;50.160;14.768;2023-04-16T02:05:36;20.88;;;13.90;;
46875;SDS011;32866;50.160;14.768;2023-04-16T02:08:02;18.35;;;13.70;;
46875;SDS011;32866;50.160;14.768;2023-04-16T02:10:27;21.40;;;14.23;;
46875;SDS011;32866;50.160;14.768;2023-04-16T02:12:53;19.17;;;13.70;;
46875;SDS011;32866;50.160;14.768;2023-04-16T02:15:18;17.92;;;11.85;;
46875;SDS011;32866;50.160;14.768;2023-04-16T02:17:43;18.95;;;12.85;;
46875;SDS011;32866;50.160;14.768;2023-04-16T02:20:10;19.17;;;12.67;;
46875;SDS011;32866;50.160;14.768;2023-04-16T02:22:36;15.50;;;11.45;;
46875;SDS011;32866;50.160;14.768;2023-04-16T02:25:01;18.15;;;13.15;;
46875;SDS011;32866;50.160;14.768;2023-04-16T02:27:26;16.88;;;12.13;;
46875;SDS011;32866;50.160;14.768;2023-04-16T02:29:52;16.70;;;12.20;;
46875;SDS011;32866;50.160;14.768;2023-04-16T02:32:17;17.73;;;12.43;;
46875;SDS011;32866;50.160;14.768;2023-04-16T02:34:43;18.00;;;13.30;;
46875;SDS011;32866;50.160;14.768;2023-04-16T02:37:08;18.83;;;13.18;;
46875;SDS011;32866;50.160;14.768;2023-04-16T02:39:34;22.45;;;14.30;;
46875;SDS011;32866;50.160;14.768;2023-04-16T02:41:59;19.50;;;14.65;;
46875;SDS011;32866;50.160;14.768;2023-04-16T02:44:26;21.20;;;14.30;;
46875;SDS011;32866;50.160;14.768;2023-04-16T02:46:51;18.95;;;12.82;;
46875;SDS011;32866;50.160;14.768;2023-04-16T02:49:17;18.45;;;13.07;;
46875;SDS011;32866;50.160;14.768;2023-04-16T02:51:42;19.15;;;13.80;;
46875;SDS011;32866;50.160;14.768;2023-04-16T02:54:07;17.88;;;13.18;;
46875;SDS011;32866;50.160;14.768;2023-04-16T02:56:33;21.30;;;13.88;;
46875;SDS011;32866;50.160;14.768;2023-04-16T02:58:58;19.13;;;14.38;;
46875;SDS011;32866;50.160;14.768;2023-04-16T03:01:24;21.40;;;14.88;;
46875;SDS011;32866;50.160;14.768;2023-04-16T03:03:49;25.17;;;15.07;;
46875;SDS011;32866;50.160;14.768;2023-04-16T03:06:14;20.83;;;14.10;;
46875;SDS011;32866;50.160;14.768;2023-04-16T03:08:40;22.48;;;14.15;;
46875;SDS011;32866;50.160;14.768;2023-04-16T03:11:05;24.92;;;14.82;;
46875;SDS011;32866;50.160;14.768;2023-04-16T03:13:31;20.10;;;15.05;;
46875;SDS011;32866;50.160;14.768;2023-04-16T03:15:56;22.48;;;15.38;;
46875;SDS011;32866;50.160;14.768;2023-04-16T03:18:22;22.75;;;15.77;;
46875;SDS011;32866;50.160;14.768;2023-04-16T03:20:51;26.63;;;16.20;;
46875;SDS011;32866;50.160;14.768;2023-04-16T03:23:17;25.63;;;17.00;;
46875;SDS011;32866;50.160;14.768;2023-04-16T03:25:42;24.88;;;15.43;;
46875;SDS011;32866;50.160;14.768;2023-04-16T03:28:10;23.03;;;15.07;;
46875;SDS011;32866;50.160;14.768;2023-04-16T03:30:35;25.65;;;15.20;;
46875;SDS011;32866;50.160;14.768;2023-04-16T03:33:01;25.77;;;16.65;;
46875;SDS011;32866;50.160;14.768;2023-04-16T03:35:27;22.95;;;14.93;;
46875;SDS011;32866;50.160;14.768;2023-04-16T03:37:52;23.98;;;15.07;;
46875;SDS011;32866;50.160;14.768;2023-04-16T03:40:18;23.90;;;14.95;;
46875;SDS011;32866;50.160;14.768;2023-04-16T03:42:43;22.75;;;15.65;;
46875;SDS011;32866;50.160;14.768;2023-04-16T03:45:08;22.08;;;14.82;;
46875;SDS011;32866;50.160;14.768;2023-04-16T03:47:34;25.58;;;16.65;;
46875;SDS011;32866;50.160;14.768;2023-04-16T03:50:00;22.67;;;15.60;;
46875;SDS011;32866;50.160;14.768;2023-04-16T03:52:25;25.20;;;15.35;;
46875;SDS011;32866;50.160;14.768;2023-04-16T03:54:52;25.67;;;15.63;;
46875;SDS011;32866;50.160;14.768;2023-04-16T03:57:17;21.88;;;15.75;;
46875;SDS011;32866;50.160;14.768;2023-04-16T03:59:42;24.38;;;15.82;;
46875;SDS011;32866;50.160;14.768;2023-04-16T04:02:08;21.30;;;15.07;;
46875;SDS011;32866;50.160;14.768;2023-04-16T04:04:33;22.52;;;14.63;;
46875;SDS011;32866;50.160;14.768;2023-04-16T04:06:59;24.92;;;15.82;;
46875;SDS011;32866;50.160;14.768;2023-04-16T04:09:24;22.65;;;14.90;;
46875;SDS011;32866;50.160;14.768;2023-04-16T04:11:50;21.88;;;15.23;;
46875;SDS011;32866;50.160;14.768;2023-04-16T04:14:15;21.73;;;15.00;;
46875;SDS011;32866;50.160;14.768;2023-04-16T04:16:41;24.05;;;14.73;;
46875;SDS011;32866;50.160;14.768;2023-04-16T04:19:06;22.10;;;15.93;;
46875;SDS011;32866;50.160;14.768;2023-04-16T04:21:31;25.73;;;15.65;;
46875;SDS011;32866;50.160;14.768;2023-04-16T04:23:57;28.23;;;17.58;;
46875;SDS011;32866;50.160;14.768;2023-04-16T04:26:22;25.13;;;16.60;;
46875;SDS011;32866;50.160;14.768;2023-04-16T04:28:48;24.38;;;16.67;;
46875;SDS011;32866;50.160;14.768;2023-04-16T04:31:13;19.17;;;15.65;;
46875;SDS011;32866;50.160;14.768;2023-04-16T04:33:38;23.02;;;16.05;;
46875;SDS011;32866;50.160;14.768;2023-04-16T04:36:04;21.20;;;14.90;;
46875;SDS011;32866;50.160;14.768;2023-04-16T04:38:30;19.88;;;15.00;;
46875;SDS011;32866;50.160;14.768;2023-04-16T04:40:55;24.83;;;15.93;;
46875;SDS011;32866;50.160;14.768;2023-04-16T04:43:20;26.58;;;14.95;;
46875;SDS011;32866;50.160;14.768;2023-04-16T04:48:19;20.37;;;14.83;;
46875;SDS011;32866;50.160;14.768;2023-04-16T04:50:50;23.77;;;16.10;;
46875;SDS011;32866;50.160;14.768;2023-04-16T04:53:15;22.98;;;15.40;;
46875;SDS011;32866;50.160;14.768;2023-04-16T04:55:40;24.63;;;15.63;;
46875;SDS011;32866;50.160;14.768;2023-04-16T04:58:06;23.17;;;17.50;;
46875;SDS011;32866;50.160;14.768;2023-04-16T05:00:32;20.07;;;14.43;;
46875;SDS011;32866;50.160;14.768;2023-04-16T05:03:04;23.43;;;14.63;;
46875;SDS011;32866;50.160;14.768;2023-04-16T05:05:33;24.07;;;15.73;;
46875;SDS011;32866;50.160;14.768;2023-04-16T05:07:58;21.63;;;16.05;;
46875;SDS011;32866;50.160;14.768;2023-04-16T05:10:24;21.63;;;15.98;;
46875;SDS011;32866;50.160;14.768;2023-04-16T05:12:49;20.13;;;15.43;;
46875;SDS011;32866;50.160;14.768;2023-04-16T05:15:15;19.85;;;14.95;;
46875;SDS011;32866;50.160;14.768;2023-04-16T05:17:40;19.85;;;14.10;;
46875;SDS011;32866;50.160;14.768;2023-04-16T05:20:07;20.30;;;14.70;;
46875;SDS011;32866;50.160;14.768;2023-04-16T05:22:33;23.37;;;15.60;;
46875;SDS011;32866;50.160;14.768;2023-04-16T05:24:58;20.42;;;14.88;;
46875;SDS011;32866;50.160;14.768;2023-04-16T05:27:23;18.15;;;13.57;;
46875;SDS011;32866;50.160;14.768;2023-04-16T05:29:49;19.20;;;14.02;;
46875;SDS011;32866;50.160;14.768;2023-04-16T05:32:14;22.02;;;15.60;;
46875;SDS011;32866;50.160;14.768;2023-04-16T05:34:40;20.25;;;14.82;;
46875;SDS011;32866;50.160;14.768;2023-04-16T05:37:05;18.55;;;14.57;;
46875;SDS011;32866;50.160;14.768;2023-04-16T05:39:30;20.70;;;14.52;;
46875;SDS011;32866;50.160;14.768;2023-04-16T05:41:56;20.17;;;14.20;;
46875;SDS011;32866;50.160;14.768;2023-04-16T05:44:21;17.88;;;13.45;;
46875;SDS011;32866;50.160;14.768;2023-04-16T05:46:47;15.43;;;11.90;;
46875;SDS011;32866;50.160;14.768;2023-04-16T05:49:12;19.73;;;13.15;;
46875;SDS011;32866;50.160;14.768;2023-04-16T05:51:37;20.92;;;14.05;;
46875;SDS011;32866;50.160;14.768;2023-04-16T05:54:03;18.52;;;12.80;;
46875;SDS011;32866;50.160;14.768;2023-04-16T05:56:28;19.00;;;13.95;;
46875;SDS011;32866;50.160;14.768;2023-04-16T05:58:54;22.15;;;14.90;;
46875;SDS011;32866;50.160;14.768;2023-04-16T06:01:20;21.50;;;14.80;;
46875;SDS011;32866;50.160;14.768;2023-04-16T06:03:45;23.48;;;15.10;;
46875;SDS011;32866;50.160;14.768;2023-04-16T06:06:10;19.45;;;12.98;;
46875;SDS011;32866;50.160;14.768;2023-04-16T06:08:36;20.13;;;13.88;;
46875;SDS011;32866;50.160;14.768;2023-04-16T06:11:02;17.00;;;12.98;;
46875;SDS011;32866;50.160;14.768;2023-04-16T06:13:27;20.52;;;15.00;;
46875;SDS011;32866;50.160;14.768;2023-04-16T06:15:53;20.25;;;14.07;;
46875;SDS011;32866;50.160;14.768;2023-04-16T06:18:18;21.08;;;13.48;;
46875;SDS011;32866;50.160;14.768;2023-04-16T06:20:43;25.05;;;15.82;;
46875;SDS011;32866;50.160;14.768;2023-04-16T06:23:09;22.73;;;16.17;;
46875;SDS011;32866;50.160;14.768;2023-04-16T06:25:34;20.02;;;13.55;;
46875;SDS011;32866;50.160;14.768;2023-04-16T06:28:00;22.38;;;15.43;;
46875;SDS011;32866;50.160;14.768;2023-04-16T06:30:25;18.85;;;12.73;;
46875;SDS011;32866;50.160;14.768;2023-04-16T06:32:50;19.95;;;13.75;;
46875;SDS011;32866;50.160;14.768;2023-04-16T06:35:17;17.67;;;12.70;;
46875;SDS011;32866;50.160;14.768;2023-04-16T06:37:44;18.57;;;12.73;;
46875;SDS011;32866;50.160;14.768;2023-04-16T06:40:10;16.65;;;12.32;;
46875;SDS011;32866;50.160;14.768;2023-04-16T06:42:35;16.13;;;12.93;;
46875;SDS011;32866;50.160;14.768;2023-04-16T06:45:01;19.13;;;13.32;;
46875;SDS011;32866;50.160;14.768;2023-04-16T06:47:26;19.77;;;12.55;;
46875;SDS011;32866;50.160;14.768;2023-04-16T06:49:52;16.83;;;12.10;;
46875;SDS011;32866;50.160;14.768;2023-04-16T06:52:17;17.48;;;11.60;;
46875;SDS011;32866;50.160;14.768;2023-04-16T06:54:42;17.83;;;12.05;;
46875;SDS011;32866;50.160;14.768;2023-04-16T06:57:08;16.65;;;11.43;;
46875;SDS011;32866;50.160;14.768;2023-04-16T06:59:33;13.90;;;10.60;;
46875;SDS011;32866;50.160;14.768;2023-04-16T07:01:58;13.15;;;9.95;;
46875;SDS011;32866;50.160;14.768;2023-04-16T07:04:24;15.15;;;10.77;;
46875;SDS011;32866;50.160;14.768;2023-04-16T07:06:49;14.90;;;10.77;;
46875;SDS011;32866;50.160;14.768;2023-04-16T07:09:15;16.77;;;10.88;;
46875;SDS011;32866;50.160;14.768;2023-04-16T07:11:41;13.73;;;10.90;;
46875;SDS011;32866;50.160;14.768;2023-04-16T07:14:07;14.07;;;9.85;;
46875;SDS011;32866;50.160;14.768;2023-04-16T07:16:33;13.35;;;10.63;;
46875;SDS011;32866;50.160;14.768;2023-04-16T07:18:58;12.20;;;10.35;;
46875;SDS011;32866;50.160;14.768;2023-04-16T07:21:24;13.63;;;9.75;;
46875;SDS011;32866;50.160;14.768;2023-04-16T07:23:50;10.47;;;8.67;;
46875;SDS011;32866;50.160;14.768;2023-04-16T07:26:15;16.80;;;9.80;;
46875;SDS011;32866;50.160;14.768;2023-04-16T07:28:41;12.95;;;8.68;;
46875;SDS011;32866;50.160;14.768;2023-04-16T07:31:06;11.45;;;8.38;;
46875;SDS011;32866;50.160;14.768;2023-04-16T07:33:32;11.02;;;7.93;;
46875;SDS011;32866;50.160;14.768;2023-04-16T07:35:57;8.88;;;7.15;;
46875;SDS011;32866;50.160;14.768;2023-04-16T07:38:23;13.45;;;8.88;;
46875;SDS011;32866;50.160;14.768;2023-04-16T07:40:48;12.30;;;8.18;;
46875;SDS011;32866;50.160;14.768;2023-04-16T07:43:13;7.90;;;5.60;;
46875;SDS011;32866;50.160;14.768;2023-04-16T07:45:40;10.00;;;6.50;;
46875;SDS011;32866;50.160;14.768;2023-04-16T07:48:05;9.77;;;6.53;;
46875;SDS011;32866;50.160;14.768;2023-04-16T07:50:31;14.43;;;6.85;;
46875;SDS011;32866;50.160;14.768;2023-04-16T07:52:56;8.10;;;6.72;;
46875;SDS011;32866;50.160;14.768;2023-04-16T07:55:21;8.85;;;7.18;;
46875;SDS011;32866;50.160;14.768;2023-04-16T07:57:47;10.00;;;7.50;;
46875;SDS011;32866;50.160;14.768;2023-04-16T08:00:12;10.27;;;7.53;;
46875;SDS011;32866;50.160;14.768;2023-04-16T08:02:38;10.75;;;7.88;;
46875;SDS011;32866;50.160;14.768;2023-04-16T08:05:04;11.25;;;8.55;;
46875;SDS011;32866;50.160;14.768;2023-04-16T08:07:30;12.60;;;7.77;;
46875;SDS011;32866;50.160;14.768;2023-04-16T08:09:55;12.15;;;8.38;;
46875;SDS011;32866;50.160;14.768;2023-04-16T08:12:20;11.70;;;6.82;;
46875;SDS011;32866;50.160;14.768;2023-04-16T08:14:46;9.98;;;7.05;;
46875;SDS011;32866;50.160;14.768;2023-04-16T08:17:12;11.32;;;7.47;;
46875;SDS011;32866;50.160;14.768;2023-04-16T08:19:41;11.25;;;7.50;;
46875;SDS011;32866;50.160;14.768;2023-04-16T08:22:08;9.20;;;7.47;;
46875;SDS011;32866;50.160;14.768;2023-04-16T08:24:35;10.37;;;7.87;;
46875;SDS011;32866;50.160;14.768;2023-04-16T08:27:00;11.85;;;7.63;;
46875;SDS011;32866;50.160;14.768;2023-04-16T08:29:25;11.82;;;8.20;;
46875;SDS011;32866;50.160;14.768;2023-04-16T08:31:51;10.52;;;7.90;;
46875;SDS011;32866;50.160;14.768;2023-04-16T08:34:17;10.33;;;7.77;;
46875;SDS011;32866;50.160;14.768;2023-04-16T08:36:43;11.95;;;8.40;;
46875;SDS011;32866;50.160;14.768;2023-04-16T08:39:08;10.75;;;7.25;;
46875;SDS011;32866;50.160;14.768;2023-04-16T08:41:34;9.32;;;6.90;;
46875;SDS011;32866;50.160;14.768;2023-04-16T08:44:08;8.97;;;7.00;;
46875;SDS011;32866;50.160;14.768;2023-04-16T08:46:38;9.25;;;7.35;;
46875;SDS011;32866;50.160;14.768;2023-04-16T08:49:05;11.17;;;7.63;;
46875;SDS011;32866;50.160;14.768;2023-04-16T08:51:34;9.80;;;8.00;;
46875;SDS011;32866;50.160;14.768;2023-04-16T08:54:10;11.60;;;7.40;;
46875;SDS011;32866;50.160;14.768;2023-04-16T08:56:38;11.75;;;8.85;;
46875;SDS011;32866;50.160;14.768;2023-04-16T08:59:06;10.63;;;8.40;;
46875;SDS011;32866;50.160;14.768;2023-04-16T09:01:33;9.73;;;7.10;;
46875;SDS011;32866;50.160;14.768;2023-04-16T09:03:59;8.90;;;7.40;;
46875;SDS011;32866;50.160;14.768;2023-04-16T09:06:26;8.65;;;7.72;;
46875;SDS011;32866;50.160;14.768;2023-04-16T09:11:17;9.65;;;7.75;;
46875;SDS011;32866;50.160;14.768;2023-04-16T09:13:42;10.55;;;8.15;;
46875;SDS011;32866;50.160;14.768;2023-04-16T09:16:09;10.00;;;7.45;;
46875;SDS011;32866;50.160;14.768;2023-04-16T09:18:36;10.18;;;6.95;;
46875;SDS011;32866;50.160;14.768;2023-04-16T09:23:28;6.68;;;5.93;;
46875;SDS011;32866;50.160;14.768;2023-04-16T09:31:11;8.57;;;6.00;;
46875;SDS011;32866;50.160;14.768;2023-04-16T09:33:38;6.07;;;4.82;;
46875;SDS011;32866;50.160;14.768;2023-04-16T09:36:05;6.28;;;5.25;;
46875;SDS011;32866;50.160;14.768;2023-04-16T09:38:47;7.18;;;5.20;;
46875;SDS011;32866;50.160;14.768;2023-04-16T09:41:15;4.85;;;4.35;;
46875;SDS011;32866;50.160;14.768;2023-04-16T09:46:35;6.68;;;5.03;;
46875;SDS011;32866;50.160;14.768;2023-04-16T09:49:08;5.50;;;4.43;;
46875;SDS011;32866;50.160;14.768;2023-04-16T09:51:39;6.13;;;4.90;;
46875;SDS011;32866;50.160;14.768;2023-04-16T09:54:11;5.38;;;4.88;;
46875;SDS011;32866;50.160;14.768;2023-04-16T09:56:43;8.48;;;5.28;;
46875;SDS011;32866;50.160;14.768;2023-04-16T09:59:16;6.47;;;5.22;;
46875;SDS011;32866;50.160;14.768;2023-04-16T10:01:42;4.82;;;4.30;;
46875;SDS011;32866;50.160;14.768;2023-04-16T10:04:10;6.00;;;4.72;;
46875;SDS011;32866;50.160;14.768;2023-04-16T10:09:01;6.03;;;5.13;;
46875;SDS011;32866;50.160;14.768;2023-04-16T10:11:31;6.18;;;4.72;;
46875;SDS011;32866;50.160;14.768;2023-04-16T10:16:22;6.32;;;4.95;;
46875;SDS011;32866;50.160;14.768;2023-04-16T10:21:13;5.45;;;4.07;;
46875;SDS011;32866;50.160;14.768;2023-04-16T10:23:40;5.03;;;4.35;;
46875;SDS011;32866;50.160;14.768;2023-04-16T10:26:07;3.97;;;3.58;;
46875;SDS011;32866;50.160;14.768;2023-04-16T10:31:00;5.05;;;3.58;;
46875;SDS011;32866;50.160;14.768;2023-04-16T10:33:28;5.88;;;3.90;;
46875;SDS011;32866;50.160;14.768;2023-04-16T10:38:33;4.35;;;3.40;;
46875;SDS011;32866;50.160;14.768;2023-04-16T10:41:00;3.30;;;2.85;;
46875;SDS011;32866;50.160;14.768;2023-04-16T10:43:27;3.65;;;3.35;;
46875;SDS011;32866;50.160;14.768;2023-04-16T10:45:54;8.23;;;4.20;;
46875;SDS011;32866;50.160;14.768;2023-04-16T10:48:20;5.82;;;4.57;;
46875;SDS011;32866;50.160;14.768;2023-04-16T10:50:54;3.92;;;3.45;;
46875;SDS011;32866;50.160;14.768;2023-04-16T10:53:22;6.60;;;3.83;;
46875;SDS011;32866;50.160;14.768;2023-04-16T10:58:28;4.10;;;3.03;;
46875;SDS011;32866;50.160;14.768;2023-04-16T11:00:57;3.90;;;3.00;;
46875;SDS011;32866;50.160;14.768;2023-04-16T11:03:24;3.10;;;2.72;;
46875;SDS011;32866;50.160;14.768;2023-04-16T11:05:49;3.67;;;3.05;;
46875;SDS011;32866;50.160;14.768;2023-04-16T11:08:15;3.30;;;2.42;;
46875;SDS011;32866;50.160;14.768;2023-04-16T11:10:40;3.90;;;2.95;;
46875;SDS011;32866;50.160;14.768;2023-04-16T11:13:06;3.15;;;2.53;;
46875;SDS011;32866;50.160;14.768;2023-04-16T11:15:33;3.95;;;2.65;;
46875;SDS011;32866;50.160;14.768;2023-04-16T11:17:58;2.80;;;2.25;;
46875;SDS011;32866;50.160;14.768;2023-04-16T11:20:25;3.60;;;2.47;;
46875;SDS011;32866;50.160;14.768;2023-04-16T11:22:55;3.72;;;2.50;;
46875;SDS011;32866;50.160;14.768;2023-04-16T11:25:23;3.25;;;2.10;;
46875;SDS011;32866;50.160;14.768;2023-04-16T11:27:49;5.18;;;2.92;;
46875;SDS011;32866;50.160;14.768;2023-04-16T11:30:16;3.30;;;2.47;;
46875;SDS011;32866;50.160;14.768;2023-04-16T11:32:42;3.42;;;2.20;;
46875;SDS011;32866;50.160;14.768;2023-04-16T11:35:15;2.08;;;1.63;;
46875;SDS011;32866;50.160;14.768;2023-04-16T11:37:41;2.47;;;1.88;;
46875;SDS011;32866;50.160;14.768;2023-04-16T11:40:07;3.83;;;2.42;;
46875;SDS011;32866;50.160;14.768;2023-04-16T11:42:37;3.10;;;2.38;;
46875;SDS011;32866;50.160;14.768;2023-04-16T11:45:07;2.80;;;2.53;;
46875;SDS011;32866;50.160;14.768;2023-04-16T11:47:46;1.90;;;1.50;;
46875;SDS011;32866;50.160;14.768;2023-04-16T11:52:44;2.50;;;1.80;;
46875;SDS011;32866;50.160;14.768;2023-04-16T11:55:10;2.13;;;1.65;;
46875;SDS011;32866;50.160;14.768;2023-04-16T11:57:36;2.63;;;2.10;;
46875;SDS011;32866;50.160;14.768;2023-04-16T12:00:02;2.80;;;2.22;;
46875;SDS011;32866;50.160;14.768;2023-04-16T12:02:33;3.33;;;2.05;;
46875;SDS011;32866;50.160;14.768;2023-04-16T12:05:30;4.13;;;2.78;;
46875;SDS011;32866;50.160;14.768;2023-04-16T12:07:59;2.50;;;2.05;;
46875;SDS011;32866;50.160;14.768;2023-04-16T12:10:36;2.85;;;2.50;;
46875;SDS011;32866;50.160;14.768;2023-04-16T12:13:16;2.67;;;2.47;;
46875;SDS011;32866;50.160;14.768;2023-04-16T12:15:42;2.42;;;2.10;;
46875;SDS011;32866;50.160;14.768;2023-04-16T12:18:09;4.60;;;2.85;;
46875;SDS011;32866;50.160;14.768;2023-04-16T12:20:38;3.65;;;2.38;;
46875;SDS011;32866;50.160;14.768;2023-04-16T12:23:05;3.20;;;2.70;;
46875;SDS011;32866;50.160;14.768;2023-04-16T12:25:32;5.60;;;2.97;;
46875;SDS011;32866;50.160;14.768;2023-04-16T12:27:57;3.08;;;2.78;;
46875;SDS011;32866;50.160;14.768;2023-04-16T12:30:23;2.85;;;2.40;;
46875;SDS011;32866;50.160;14.768;2023-04-16T12:33:12;3.72;;;2.72;;
46875;SDS011;32866;50.160;14.768;2023-04-16T12:35:38;4.07;;;2.85;;
46875;SDS011;32866;50.160;14.768;2023-04-16T12:38:06;2.58;;;2.20;;
46875;SDS011;32866;50.160;14.768;2023-04-16T12:42:57;3.38;;;2.30;;
46875;SDS011;32866;50.160;14.768;2023-04-16T12:45:23;2.83;;;2.28;;
46875;SDS011;32866;50.160;14.768;2023-04-16T12:47:48;3.97;;;2.50;;
46875;SDS011;32866;50.160;14.768;2023-04-16T12:50:14;2.45;;;2.00;;
46875;SDS011;32866;50.160;14.768;2023-04-16T12:52:39;2.75;;;2.40;;
46875;SDS011;32866;50.160;14.768;2023-04-16T12:55:05;6.30;;;2.70;;
46875;SDS011;32866;50.160;14.768;2023-04-16T12:57:31;3.80;;;2.30;;
46875;SDS011;32866;50.160;14.768;2023-04-16T12:59:56;2.67;;;2.13;;
46875;SDS011;32866;50.160;14.768;2023-04-16T13:02:22;2.53;;;2.10;;
46875;SDS011;32866;50.160;14.768;2023-04-16T13:04:49;2.85;;;2.40;;
46875;SDS011;32866;50.160;14.768;2023-04-16T13:07:15;3.03;;;2.20;;
46875;SDS011;32866;50.160;14.768;2023-04-16T13:09:41;2.45;;;2.08;;
46875;SDS011;32866;50.160;14.768;2023-04-16T13:12:07;2.20;;;1.80;;
46875;SDS011;32866;50.160;14.768;2023-04-16T13:14:32;3.17;;;2.03;;
46875;SDS011;32866;50.160;14.768;2023-04-16T13:16:58;2.17;;;1.98;;
46875;SDS011;32866;50.160;14.768;2023-04-16T13:19:23;3.67;;;2.40;;
46875;SDS011;32866;50.160;14.768;2023-04-16T13:21:49;2.10;;;1.90;;
46875;SDS011;32866;50.160;14.768;2023-04-16T13:24:14;2.25;;;1.92;;
46875;SDS011;32866;50.160;14.768;2023-04-16T13:26:40;3.08;;;2.33;;
46875;SDS011;32866;50.160;14.768;2023-04-16T13:29:06;2.97;;;1.70;;
46875;SDS011;32866;50.160;14.768;2023-04-16T13:31:31;2.63;;;2.30;;
46875;SDS011;32866;50.160;14.768;2023-04-16T13:33:57;2.20;;;2.00;;
46875;SDS011;32866;50.160;14.768;2023-04-16T13:36:22;2.70;;;2.20;;
46875;SDS011;32866;50.160;14.768;2023-04-16T13:38:47;2.50;;;1.85;;
46875;SDS011;32866;50.160;14.768;2023-04-16T13:41:13;2.67;;;2.25;;
46875;SDS011;32866;50.160;14.768;2023-04-16T13:43:38;4.95;;;2.28;;
46875;SDS011;32866;50.160;14.768;2023-04-16T13:46:03;2.83;;;2.13;;
46875;SDS011;32866;50.160;14.768;2023-04-16T13:48:29;2.20;;;2.00;;
46875;SDS011;32866;50.160;14.768;2023-04-16T13:50:54;2.65;;;2.13;;
46875;SDS011;32866;50.160;14.768;2023-04-16T13:53:20;2.92;;;2.35;;
46875;SDS011;32866;50.160;14.768;2023-04-16T13:55:46;2.03;;;1.67;;
46875;SDS011;32866;50.160;14.768;2023-04-16T13:58:13;2.45;;;2.20;;
46875;SDS011;32866;50.160;14.768;2023-04-16T14:00:39;2.30;;;1.90;;
46875;SDS011;32866;50.160;14.768;2023-04-16T14:03:04;3.10;;;2.10;;
46875;SDS011;32866;50.160;14.768;2023-04-16T14:05:30;3.20;;;2.10;;
46875;SDS011;32866;50.160;14.768;2023-04-16T14:07:55;3.40;;;2.33;;
46875;SDS011;32866;50.160;14.768;2023-04-16T14:12:46;3.20;;;2.28;;
46875;SDS011;32866;50.160;14.768;2023-04-16T14:17:38;4.38;;;2.35;;
46875;SDS011;32866;50.160;14.768;2023-04-16T14:20:07;4.93;;;2.97;;
46875;SDS011;32866;50.160;14.768;2023-04-16T14:22:34;2.88;;;2.13;;
46875;SDS011;32866;50.160;14.768;2023-04-16T14:27:25;3.00;;;2.13;;
46875;SDS011;32866;50.160;14.768;2023-04-16T14:29:51;2.10;;;1.90;;
46875;SDS011;32866;50.160;14.768;2023-04-16T14:32:17;2.78;;;2.22;;
46875;SDS011;32866;50.160;14.768;2023-04-16T14:34:42;3.22;;;2.28;;
46875;SDS011;32866;50.160;14.768;2023-04-16T14:37:07;2.10;;;1.75;;
46875;SDS011;32866;50.160;14.768;2023-04-16T14:39:33;2.47;;;1.90;;
46875;SDS011;32866;50.160;14.768;2023-04-16T14:41:58;2.60;;;1.67;;
46875;SDS011;32866;50.160;14.768;2023-04-16T14:44:24;2.10;;;1.70;;
46875;SDS011;32866;50.160;14.768;2023-04-16T14:46:49;3.15;;;2.10;;
46875;SDS011;32866;50.160;14.768;2023-04-16T14:49:14;2.25;;;2.05;;
46875;SDS011;32866;50.160;14.768;2023-04-16T14:51:40;2.95;;;2.08;;
46875;SDS011;32866;50.160;14.768;2023-04-16T14:56:31;2.60;;;2.15;;
46875;SDS011;32866;50.160;14.768;2023-04-16T15:01:21;3.50;;;2.22;;
46875;SDS011;32866;50.160;14.768;2023-04-16T15:03:47;4.28;;;2.20;;
46875;SDS011;32866;50.160;14.768;2023-04-16T15:06:13;3.22;;;2.30;;